Time;durP1;ratioP1;P1;durP2;ratioP2;P2;SDS_P1;SDS_P2;PMS_P1;PMS_P2;Temp;Humidity;BMP_temperature;BMP_pressure;BME280_temperature;BME280_humidity;BME280_pressure;Samples;Min_cycle;Max_cycle;Signal;HPM_P1;HPM_P2
2023/10/10 05:24:43;;;;;;;0.60;0.10;;;15.60;99.90;;;;;;4992316;28;20478;-75
2023/10/10 05:27:11;;;;;;;0.60;0.10;;;15.60;99.90;;;;;;4990406;28;20513;-74
2023/10/10 05:29:41;;;;;;;0.60;0.10;;;15.70;99.90;;;;;;4971889;28;20455;-76
2023/10/10 05:32:11;;;;;;;0.60;0.10;;;15.70;99.90;;;;;;4971721;28;20509;-75
2023/10/10 05:34:41;;;;;;;0.60;0.10;;;15.70;99.90;;;;;;4976636;28;20469;-76
2023/10/10 05:37:09;;;;;;;0.60;0.10;;;15.70;99.90;;;;;;4982085;28;20446;-75
2023/10/10 05:39:38;;;;;;;0.60;0.10;;;15.60;99.90;;;;;;4969251;28;20486;-77
2023/10/10 05:42:08;;;;;;;0.60;0.10;;;15.50;99.90;;;;;;4968902;28;20520;-75
2023/10/10 05:44:38;;;;;;;0.60;0.10;;;15.50;99.90;;;;;;4974446;28;20453;-77
2023/10/10 05:47:07;;;;;;;0.60;0.10;;;15.50;99.90;;;;;;4973935;28;20957;-76
2023/10/10 05:49:36;;;;;;;0.60;0.20;;;15.40;99.90;;;;;;4965059;28;20968;-76
2023/10/10 05:52:06;;;;;;;0.60;0.10;;;15.40;99.90;;;;;;4968904;28;20556;-75
2023/10/10 05:54:35;;;;;;;0.60;0.10;;;15.40;99.90;;;;;;4971698;28;20536;-77
2023/10/10 05:57:05;;;;;;;0.60;0.20;;;15.40;99.90;;;;;;4968451;28;20924;-77
2023/10/10 05:59:33;;;;;;;0.60;0.10;;;15.30;99.90;;;;;;4972589;28;20540;-76
2023/10/10 06:02:01;;;;;;;0.60;0.20;;;15.40;99.90;;;;;;4976596;28;20465;-74
2023/10/10 06:04:29;;;;;;;0.70;0.53;;;15.40;99.90;;;;;;4967953;28;20821;-75
2023/10/10 06:06:59;;;;;;;0.60;0.20;;;15.20;99.90;;;;;;5014924;23;20539;-70
2023/10/10 06:09:27;;;;;;;0.60;0.10;;;15.30;99.90;;;;;;4990050;28;20440;-71
2023/10/10 06:11:55;;;;;;;0.60;0.20;;;15.30;99.90;;;;;;4990109;28;20480;-70
2023/10/10 06:14:27;;;;;;;0.60;0.10;;;15.40;99.90;;;;;;4990471;28;20441;-69
2023/10/10 06:16:54;;;;;;;0.60;0.20;;;15.40;99.90;;;;;;4990034;28;20460;-73
2023/10/10 06:19:22;;;;;;;0.60;0.10;;;15.50;99.90;;;;;;4990788;28;20558;-72
2023/10/10 06:21:55;;;;;;;0.60;0.10;;;15.50;99.90;;;;;;4990927;28;20448;-73
2023/10/10 06:24:23;;;;;;;0.60;0.20;;;15.50;99.90;;;;;;4991243;28;20467;-70
2023/10/10 06:26:53;;;;;;;1.10;0.60;;;15.60;99.90;;;;;;4990899;28;20552;-71
2023/10/10 06:29:24;;;;;;;0.60;0.10;;;15.60;99.90;;;;;;4990857;28;20540;-71
2023/10/10 06:31:53;;;;;;;0.60;0.10;;;15.70;99.90;;;;;;4991082;28;20471;-72
2023/10/10 06:34:22;;;;;;;0.60;0.20;;;15.70;99.90;;;;;;4991699;28;20989;-70
2023/10/10 06:36:52;;;;;;;0.60;0.10;;;15.70;99.90;;;;;;4991935;28;20473;-69
2023/10/10 06:39:21;;;;;;;0.60;0.10;;;15.70;99.90;;;;;;4976176;28;20485;-69
2023/10/10 06:41:51;;;;;;;0.60;0.10;;;15.70;99.90;;;;;;4972366;28;20450;-70
2023/10/10 06:44:33;;;;;;;0.60;0.10;;;15.70;99.90;;;;;;4969758;28;20784;-69
2023/10/10 06:47:08;;;;;;;0.60;0.20;;;15.60;99.90;;;;;;4963633;28;20498;-70
2023/10/10 06:49:56;;;;;;;1.33;0.67;;;15.60;99.90;;;;;;4971161;28;20500;-70
2023/10/10 06:52:28;;;;;;;0.60;0.10;;;15.60;99.90;;;;;;4971700;28;20944;-70
2023/10/10 06:54:57;;;;;;;0.60;0.10;;;15.60;99.90;;;;;;4975186;28;20445;-69
2023/10/10 06:57:37;;;;;;;0.60;0.10;;;15.70;99.90;;;;;;4975256;28;20485;-69
2023/10/10 07:00:20;;;;;;;0.60;0.20;;;15.80;99.90;;;;;;4975526;28;20489;-70
2023/10/10 07:02:53;;;;;;;0.60;0.10;;;15.60;99.90;;;;;;4975174;28;20496;-72
2023/10/10 07:05:26;;;;;;;0.60;0.10;;;15.70;99.90;;;;;;4975246;28;20457;-70
2023/10/10 07:07:58;;;;;;;0.60;0.20;;;15.70;99.90;;;;;;4974175;28;21057;-70
2023/10/10 07:10:32;;;;;;;0.60;0.10;;;15.70;99.90;;;;;;4974276;28;20859;-74
2023/10/10 07:13:01;;;;;;;0.60;0.10;;;15.70;99.90;;;;;;4974861;28;20974;-71
2023/10/10 07:15:34;;;;;;;0.60;0.20;;;15.70;99.90;;;;;;4974473;28;20537;-71
2023/10/10 07:18:15;;;;;;;0.60;0.10;;;15.80;99.90;;;;;;4974092;28;20465;-71
2023/10/10 07:23:38;;;;;;;0.60;0.10;;;15.80;99.90;;;;;;4974292;28;20442;-71
2023/10/10 07:26:18;;;;;;;0.60;0.10;;;15.90;99.90;;;;;;4974349;28;20449;-70
2023/10/10 07:28:49;;;;;;;0.60;0.10;;;16.00;99.90;;;;;;4974395;28;20488;-71
2023/10/10 07:31:17;;;;;;;0.60;0.10;;;16.10;99.90;;;;;;4974396;28;20446;-72
2023/10/10 07:33:55;;;;;;;0.60;0.10;;;16.20;99.90;;;;;;4974246;28;20477;-69
2023/10/10 07:36:27;;;;;;;0.60;0.10;;;;;;;;;;4974565;28;20468;-69
2023/10/10 07:39:32;;;;;;;0.60;0.10;;;16.40;99.90;;;;;;4974290;28;20575;-69
2023/10/10 07:41:45;;;;;;;0.60;0.10;;;16.50;99.90;;;;;;4974319;28;20454;-70
2023/10/10 07:44:16;;;;;;;0.60;0.10;;;16.60;99.90;;;;;;4967593;28;20538;-71
2023/10/10 07:47:10;;;;;;;0.60;0.10;;;16.70;99.90;;;;;;4973786;28;20532;-71
2023/10/10 07:49:35;;;;;;;0.70;0.63;;;;;;;;;;4973840;28;20505;-71
2023/10/10 07:52:04;;;;;;;0.60;0.10;;;16.60;99.90;;;;;;4971758;28;20540;-70
2023/10/10 07:54:38;;;;;;;0.60;0.10;;;16.60;99.90;;;;;;4973358;28;20484;-71
2023/10/10 07:57:17;;;;;;;0.60;0.10;;;;;;;;;;4974188;28;20472;-71
2023/10/10 07:59:45;;;;;;;0.60;0.10;;;16.70;99.90;;;;;;4973837;28;20481;-70
2023/10/10 08:02:24;;;;;;;0.60;0.13;;;16.70;99.90;;;;;;4974060;28;20453;-70
2023/10/10 08:04:55;;;;;;;0.60;0.10;;;16.70;99.90;;;;;;4974345;28;20446;-72
2023/10/10 08:07:23;;;;;;;0.60;0.30;;;;;;;;;;4973766;28;20517;-71
2023/10/10 08:10:14;;;;;;;0.60;0.10;;;16.70;99.90;;;;;;4973871;28;20508;-70
2023/10/10 08:12:42;;;;;;;0.60;0.10;;;16.70;99.90;;;;;;4972208;28;20464;-70
2023/10/10 08:15:20;;;;;;;0.60;0.30;;;16.70;99.90;;;;;;4973260;28;20446;-71
2023/10/10 08:17:54;;;;;;;0.80;0.60;;;16.60;99.90;;;;;;4970273;28;20596;-70
2023/10/10 08:21:08;;;;;;;0.70;0.57;;;16.70;99.90;;;;;;4969968;28;20482;-71
2023/10/10 08:23:27;;;;;;;0.60;0.40;;;16.80;99.90;;;;;;4970171;28;20445;-71
2023/10/10 08:25:55;;;;;;;0.60;0.10;;;16.80;99.90;;;;;;4973137;28;20525;-72
2023/10/10 08:28:22;;;;;;;0.60;0.10;;;16.90;99.90;;;;;;4972823;28;20561;-70
2023/10/10 08:30:50;;;;;;;0.60;0.10;;;16.90;99.90;;;;;;4973161;28;20442;-70
2023/10/10 08:33:18;;;;;;;6.43;3.30;;;16.90;99.90;;;;;;4972840;28;20458;-69
2023/10/10 08:35:48;;;;;;;0.60;0.33;;;17.00;99.90;;;;;;4954196;28;20455;-70
2023/10/10 08:38:19;;;;;;;0.60;0.20;;;16.90;99.90;;;;;;4957282;28;20593;-68
2023/10/10 08:40:57;;;;;;;0.60;0.13;;;17.00;99.90;;;;;;4966142;28;20489;-71
2023/10/10 08:43:28;;;;;;;0.60;0.20;;;17.10;99.90;;;;;;4969815;28;20452;-70
2023/10/10 08:45:58;;;;;;;0.60;0.20;;;17.20;99.90;;;;;;4971654;28;20485;-71
2023/10/10 08:48:29;;;;;;;0.60;0.10;;;17.30;99.90;;;;;;4972253;28;20988;-70
2023/10/10 08:51:03;;;;;;;0.60;0.10;;;17.40;99.90;;;;;;4964903;28;20449;-69
2023/10/10 08:53:35;;;;;;;3.07;2.47;;;17.40;99.90;;;;;;4970729;28;20540;-69
2023/10/10 08:56:03;;;;;;;0.60;0.10;;;17.50;99.90;;;;;;4964361;28;20801;-72
2023/10/10 08:58:32;;;;;;;0.60;0.10;;;17.50;99.90;;;;;;4971818;28;20984;-70
2023/10/10 09:01:00;;;;;;;0.60;0.10;;;17.70;99.90;;;;;;4972156;28;20485;-69
2023/10/10 09:03:34;;;;;;;0.60;0.10;;;17.70;99.90;;;;;;4971726;28;20842;-70
2023/10/10 09:06:16;;;;;;;0.60;0.20;;;;;;;;;;4964117;28;20450;-69
2023/10/10 09:08:49;;;;;;;0.60;0.10;;;17.80;99.90;;;;;;4968869;28;20481;-69
2023/10/10 09:11:19;;;;;;;0.60;0.10;;;17.90;99.90;;;;;;4953204;29;20466;-73
2023/10/10 09:13:53;;;;;;;0.60;0.10;;;18.00;99.90;;;;;;4954030;29;20459;-72
2023/10/10 09:16:41;;;;;;;0.60;0.10;;;18.10;99.90;;;;;;4960982;28;20449;-71
2023/10/10 09:19:10;;;;;;;0.60;0.10;;;18.10;99.90;;;;;;4974019;28;20474;-71
2023/10/10 09:21:51;;;;;;;0.60;0.10;;;18.10;99.90;;;;;;4973307;28;20539;-70
2023/10/10 09:24:29;;;;;;;0.60;0.10;;;18.10;99.90;;;;;;4971849;28;20557;-71
2023/10/10 09:26:58;;;;;;;0.60;0.10;;;;;;;;;;4971271;28;20570;-71
2023/10/10 09:29:32;;;;;;;0.60;0.10;;;18.20;99.90;;;;;;4971853;28;20450;-71
2023/10/10 09:32:05;;;;;;;0.60;0.10;;;18.20;99.90;;;;;;4971823;28;20469;-70
2023/10/10 09:34:40;;;;;;;0.60;0.10;;;18.30;99.90;;;;;;4963613;28;20507;-71
2023/10/10 09:37:13;;;;;;;0.60;0.10;;;18.30;99.90;;;;;;4951831;29;20464;-71
2023/10/10 09:39:43;;;;;;;1.13;1.03;;;18.30;99.90;;;;;;4952269;28;20530;-70
2023/10/10 09:47:42;;;;;;;0.60;0.20;;;18.50;99.90;;;;;;4970144;28;20549;-70
2023/10/10 09:50:34;;;;;;;0.60;0.10;;;18.50;99.90;;;;;;4971645;28;20445;-70
2023/10/10 09:53:19;;;;;;;0.60;0.20;;;18.50;99.90;;;;;;4972463;28;20505;-70
2023/10/10 09:55:53;;;;;;;0.60;0.20;;;18.40;99.90;;;;;;4961273;28;20478;-72
2023/10/10 09:58:27;;;;;;;0.60;0.30;;;18.40;99.90;;;;;;4958543;28;20528;-70
2023/10/10 10:01:04;;;;;;;0.60;0.10;;;18.40;99.90;;;;;;4971566;28;21011;-72
2023/10/10 10:03:36;;;;;;;0.60;0.20;;;18.50;99.90;;;;;;4971366;28;20940;-70
2023/10/10 10:06:35;;;;;;;0.60;0.20;;;18.50;99.90;;;;;;4971367;28;20505;-72
2023/10/10 10:09:31;;;;;;;0.60;0.20;;;18.60;99.90;;;;;;4967592;28;21020;-73
2023/10/10 10:12:11;;;;;;;0.90;0.60;;;18.70;99.90;;;;;;4964157;28;20486;-71
2023/10/10 10:14:48;;;;;;;0.60;0.20;;;18.70;99.90;;;;;;4969943;28;20482;-71
2023/10/10 10:17:25;;;;;;;4.13;2.33;;;18.70;99.90;;;;;;4952059;28;20467;-70
2023/10/10 10:20:20;;;;;;;2.50;1.13;;;18.70;99.90;;;;;;4960076;28;20458;-69
2023/10/10 10:22:53;;;;;;;0.70;0.20;;;18.80;99.90;;;;;;4970473;28;20439;-70
2023/10/10 10:25:25;;;;;;;0.70;0.40;;;18.80;99.90;;;;;;4971309;28;20529;-71
2023/10/10 10:28:03;;;;;;;0.60;0.20;;;18.90;99.90;;;;;;4974861;28;20496;-72
2023/10/10 10:30:46;;;;;;;0.60;0.10;;;19.00;99.90;;;;;;4975310;28;20473;-71
2023/10/10 10:33:19;;;;;;;1.03;0.93;;;19.10;99.90;;;;;;4970777;28;20467;-71
2023/10/10 10:36:14;;;;;;;0.60;0.20;;;19.10;99.90;;;;;;4976315;28;20456;-69
2023/10/10 10:39:18;;;;;;;0.83;0.57;;;19.20;99.90;;;;;;4975379;28;20919;-70
2023/10/10 10:41:42;;;;;;;0.60;0.20;;;19.30;99.90;;;;;;4966478;28;20517;-70
2023/10/10 10:44:13;;;;;;;1.53;1.43;;;19.30;99.90;;;;;;4968760;28;20542;-70
2023/10/10 10:46:47;;;;;;;3.90;0.67;;;19.30;99.90;;;;;;4974950;28;20486;-69
2023/10/10 10:49:22;;;;;;;0.60;0.20;;;19.20;99.90;;;;;;4969329;28;20452;-70
2023/10/10 10:52:10;;;;;;;0.60;0.20;;;19.40;99.90;;;;;;4955819;29;20507;-71
2023/10/10 10:54:41;;;;;;;0.60;0.10;;;19.50;99.90;;;;;;4955508;29;20939;-70
2023/10/10 10:57:27;;;;;;;0.60;0.20;;;19.50;99.90;;;;;;4960488;28;20477;-70
2023/10/10 11:00:25;;;;;;;0.60;0.20;;;16.80;99.90;;;;;;4969220;28;20543;-71
2023/10/10 11:02:59;;;;;;;0.60;0.10;;;19.70;99.90;;;;;;4958352;28;20448;-69
2023/10/10 11:05:29;;;;;;;0.90;0.63;;;19.70;99.90;;;;;;4967412;28;20450;-69
2023/10/10 11:08:10;;;;;;;0.60;0.20;;;19.70;99.90;;;;;;4966189;28;20831;-69
2023/10/10 11:10:46;;;;;;;0.60;0.10;;;19.90;99.90;;;;;;4974514;28;20449;-69
2023/10/10 11:13:15;;;;;;;3.47;3.20;;;19.90;99.90;;;;;;4974343;28;20473;-70
2023/10/10 11:15:44;;;;;;;0.60;0.20;;;;;;;;;;4971626;28;20436;-70
2023/10/10 11:18:13;;;;;;;1.07;0.97;;;;;;;;;;4954646;28;20659;-71
2023/10/10 11:20:57;;;;;;;0.60;0.20;;;19.90;99.90;;;;;;4963555;28;20786;-70
2023/10/10 11:23:41;;;;;;;0.60;0.20;;;20.10;99.90;;;;;;4974315;28;20480;-70
2023/10/10 11:26:12;;;;;;;0.60;0.20;;;20.10;99.90;;;;;;4974527;28;20479;-69
2023/10/10 11:28:47;;;;;;;0.77;0.57;;;20.10;99.90;;;;;;4974039;28;20482;-68
2023/10/10 11:31:23;;;;;;;0.60;0.20;;;20.30;99.90;;;;;;4968664;28;21047;-69
2023/10/10 11:34:09;;;;;;;0.70;0.30;;;20.40;99.90;;;;;;4957666;28;20443;-68
2023/10/10 11:36:40;;;;;;;1.73;1.60;;;20.40;99.90;;;;;;4954513;29;20453;-71
2023/10/10 11:39:31;;;;;;;0.60;0.10;;;20.40;99.90;;;;;;4967172;28;20449;-69
2023/10/10 11:42:03;;;;;;;2.07;0.97;;;20.50;99.90;;;;;;4974029;28;20523;-70
2023/10/10 11:44:34;;;;;;;0.83;0.67;;;20.60;99.50;;;;;;4973740;28;20444;-70
2023/10/10 11:47:07;;;;;;;1.80;0.50;;;20.60;99.40;;;;;;4970274;28;20482;-69
2023/10/10 11:49:35;;;;;;;2.13;0.70;;;20.70;98.40;;;;;;4970514;28;20532;-71
2023/10/10 11:52:03;;;;;;;2.13;1.93;;;20.70;98.80;;;;;;4965830;28;20539;-70
2023/10/10 11:54:32;;;;;;;0.70;0.40;;;;;;;;;;4974059;28;20532;-70
2023/10/10 11:57:00;;;;;;;0.60;0.20;;;20.70;98.50;;;;;;4973278;28;20477;-69
2023/10/10 11:59:32;;;;;;;0.60;0.10;;;20.80;98.40;;;;;;4973789;28;20515;-69
2023/10/10 12:02:13;;;;;;;5.47;1.87;;;20.80;99.70;;;;;;4973432;28;20494;-70
2023/10/10 12:04:44;;;;;;;1.07;0.67;;;20.90;98.40;;;;;;4972527;28;20445;-72
2023/10/10 12:10:07;;;;;;;1.43;1.17;;;20.90;96.00;;;;;;4959182;28;20580;-78
2023/10/10 12:12:35;;;;;;;0.60;0.20;;;21.00;95.30;;;;;;4970301;28;20437;-77
2023/10/10 12:15:03;;;;;;;0.60;0.20;;;21.00;99.90;;;;;;4971639;28;20451;-74
2023/10/10 12:17:38;;;;;;;1.80;1.70;;;21.20;94.10;;;;;;4979764;28;20496;-75
2023/10/10 12:20:08;;;;;;;0.70;0.40;;;21.10;98.90;;;;;;4980943;28;20443;-77
2023/10/10 12:22:37;;;;;;;0.70;0.30;;;21.10;99.90;;;;;;4971751;28;20487;-75
2023/10/10 12:25:13;;;;;;;1.17;1.07;;;21.10;99.30;;;;;;4964183;28;20473;-76
2023/10/10 12:27:46;;;;;;;3.73;1.43;;;21.30;94.60;;;;;;4962110;28;20484;-76
2023/10/10 12:30:18;;;;;;;0.60;0.17;;;21.30;94.90;;;;;;4974621;28;20456;-76
2023/10/10 12:32:49;;;;;;;0.60;0.20;;;21.30;94.80;;;;;;4974064;28;20473;-77
2023/10/10 12:35:17;;;;;;;0.60;0.17;;;21.40;94.90;;;;;;4983797;28;20517;-76
2023/10/10 12:37:45;;;;;;;3.13;2.43;;;21.30;94.80;;;;;;4982121;28;20461;-77
2023/10/10 12:40:14;;;;;;;0.70;0.30;;;21.30;94.80;;;;;;4966827;28;20459;-76
2023/10/10 12:42:42;;;;;;;0.83;0.83;;;21.40;93.50;;;;;;4974813;28;20492;-76
2023/10/10 12:45:11;;;;;;;0.60;0.10;;;21.40;93.60;;;;;;4978180;28;20457;-76
2023/10/10 12:47:43;;;;;;;0.60;0.10;;;21.40;93.70;;;;;;4974939;28;20479;-76
2023/10/10 12:50:14;;;;;;;1.43;1.33;;;21.50;98.50;;;;;;4976622;28;21084;-76
2023/10/10 12:52:46;;;;;;;0.60;0.20;;;21.50;95.60;;;;;;4968671;28;20480;-75
2023/10/10 12:55:16;;;;;;;0.80;0.43;;;21.50;93.90;;;;;;4969639;28;21132;-78
2023/10/10 12:57:44;;;;;;;0.70;0.40;;;21.50;92.50;;;;;;4968816;28;20476;-77
2023/10/10 13:00:33;;;;;;;0.60;0.13;;;21.50;97.10;;;;;;4967208;28;20532;-76
2023/10/10 13:03:01;;;;;;;0.60;0.10;;;21.50;97.40;;;;;;4957826;28;20541;-77
2023/10/10 13:05:30;;;;;;;0.70;0.43;;;21.60;96.80;;;;;;4968945;28;20474;-77
2023/10/10 13:07:59;;;;;;;4.27;1.17;;;21.50;87.20;;;;;;4967294;28;20736;-75
2023/10/10 13:10:30;;;;;;;0.97;0.70;;;21.50;93.70;;;;;;4966711;28;20462;-76
2023/10/10 13:12:58;;;;;;;2.30;1.60;;;21.40;93.30;;;;;;4969422;28;20433;-77
2023/10/10 13:15:30;;;;;;;1.00;0.70;;;21.40;92.10;;;;;;4976756;28;20545;-77
2023/10/10 13:20:55;;;;;;;3.43;1.40;;;21.60;88.50;;;;;;5034457;28;20519;-77
2023/10/10 13:23:23;;;;;;;1.33;0.73;;;21.60;84.70;;;;;;5032654;28;20447;-77
2023/10/10 13:25:51;;;;;;;1.17;1.07;;;21.60;93.30;;;;;;5031141;28;20474;-76
2023/10/10 13:28:20;;;;;;;0.60;0.10;;;21.70;84.70;;;;;;5018310;28;20515;-75
2023/10/10 13:30:49;;;;;;;7.90;1.70;;;21.70;93.50;;;;;;5022223;28;20462;-76
2023/10/10 13:33:17;;;;;;;0.70;0.30;;;21.80;85.80;;;;;;5012609;28;20460;-78
2023/10/10 13:35:48;;;;;;;1.23;0.77;;;21.80;93.50;;;;;;5029456;28;20478;-75
2023/10/10 13:38:18;;;;;;;0.60;0.10;;;21.90;87.30;;;;;;5018586;28;20578;-76
2023/10/10 13:40:48;;;;;;;0.60;0.10;;;21.90;94.20;;;;;;5028741;28;20491;-75
2023/10/10 13:43:17;;;;;;;2.40;0.63;;;22.00;93.80;;;;;;5028093;28;20550;-75
2023/10/10 13:45:47;;;;;;;1.33;0.83;;;22.10;93.80;;;;;;5032411;28;20469;-75
2023/10/10 13:48:18;;;;;;;1.10;0.50;;;22.00;83.90;;;;;;5018038;28;20463;-74
2023/10/10 13:50:51;;;;;;;16.27;1.40;;;;;;;;;;5013315;28;20444;-77
2023/10/10 13:53:22;;;;;;;0.80;0.60;;;22.10;81.30;;;;;;5017418;28;20446;-76
2023/10/10 13:55:50;;;;;;;1.23;1.00;;;21.90;79.50;;;;;;5024792;28;20919;-75
2023/10/10 13:58:18;;;;;;;0.70;0.27;;;22.00;83.30;;;;;;5036356;28;20993;-76
2023/10/10 14:00:52;;;;;;;0.60;0.20;;;22.00;82.00;;;;;;5026429;28;20800;-78
2023/10/10 14:03:28;;;;;;;0.60;0.10;;;22.10;84.50;;;;;;5012644;28;20534;-77
2023/10/10 14:06:07;;;;;;;0.63;0.23;;;22.20;92.80;;;;;;5012068;28;20440;-75
2023/10/10 14:08:37;;;;;;;0.60;0.10;;;22.30;83.90;;;;;;5012170;28;20500;-75
2023/10/10 14:11:05;;;;;;;1.27;1.17;;;22.30;86.00;;;;;;5014796;28;20443;-75
2023/10/10 14:13:34;;;;;;;0.60;0.20;;;22.40;92.40;;;;;;5021438;28;20443;-78
2023/10/10 14:16:02;;;;;;;0.60;0.10;;;22.40;92.70;;;;;;5025690;28;20448;-77
2023/10/10 14:18:32;;;;;;;0.60;0.10;;;22.50;83.60;;;;;;5033053;28;20470;-76
2023/10/10 14:21:08;;;;;;;0.70;0.30;;;22.40;91.20;;;;;;5052918;28;20508;-75
2023/10/10 14:23:39;;;;;;;0.60;0.20;;;22.50;90.80;;;;;;5056910;28;20517;-77
2023/10/10 14:26:13;;;;;;;0.60;0.20;;;22.50;91.00;;;;;;5046524;28;20932;-77
2023/10/10 14:28:50;;;;;;;2.30;1.73;;;22.40;79.20;;;;;;5053412;28;20488;-75
2023/10/10 14:31:20;;;;;;;0.60;0.30;;;22.40;89.20;;;;;;5036364;28;20446;-76
2023/10/10 14:33:49;;;;;;;0.97;0.70;;;22.40;78.00;;;;;;5039219;28;20504;-75
2023/10/10 14:36:17;;;;;;;0.60;0.20;;;22.50;79.40;;;;;;5028267;28;20449;-75
2023/10/10 14:38:49;;;;;;;0.60;0.20;;;22.50;80.40;;;;;;5039731;28;20486;-77
2023/10/10 14:41:19;;;;;;;0.87;0.87;;;22.50;90.60;;;;;;5039029;28;20484;-76
2023/10/10 14:43:49;;;;;;;1.13;0.77;;;22.70;90.90;;;;;;5040567;28;20478;-75
2023/10/10 14:46:21;;;;;;;0.80;0.60;;;22.70;91.00;;;;;;5045709;28;20447;-75
2023/10/10 14:48:51;;;;;;;1.90;1.13;;;22.70;79.20;;;;;;5039037;28;21014;-74
2023/10/10 14:51:19;;;;;;;1.20;1.10;;;22.70;75.40;;;;;;5029525;28;20531;-75
2023/10/10 14:53:52;;;;;;;5.60;0.80;;;;;;;;;;5039653;28;20454;-76
2023/10/10 14:56:33;;;;;;;0.60;0.20;;;;;;;;;;5038660;28;20523;-77
2023/10/10 14:59:03;;;;;;;0.60;0.10;;;22.70;72.10;;;;;;5038155;28;20478;-75
2023/10/10 15:01:34;;;;;;;0.60;0.20;;;22.70;71.50;;;;;;5038686;28;20474;-74
2023/10/10 15:04:05;;;;;;;0.60;0.13;;;22.80;84.00;;;;;;5039508;28;20906;-75
2023/10/10 15:06:34;;;;;;;0.80;0.60;;;22.80;83.40;;;;;;5022107;28;20479;-76
2023/10/10 15:09:04;;;;;;;0.60;0.20;;;22.80;72.30;;;;;;5037858;28;20466;-77
2023/10/10 15:11:33;;;;;;;0.60;0.10;;;22.80;85.30;;;;;;5024625;28;20510;-76
2023/10/10 15:14:01;;;;;;;0.60;0.10;;;22.80;75.40;;;;;;5022198;28;20439;-76
2023/10/10 15:16:34;;;;;;;0.70;0.37;;;22.90;88.60;;;;;;5024698;28;20454;-77
2023/10/10 15:19:06;;;;;;;1.40;0.30;;;22.80;75.90;;;;;;5029197;28;20503;-77
2023/10/10 15:21:34;;;;;;;0.60;0.20;;;22.90;67.40;;;;;;5036299;28;20479;-78
2023/10/10 15:24:11;;;;;;;0.70;0.30;;;22.90;67.00;;;;;;5035037;28;20462;-76
2023/10/10 15:26:39;;;;;;;0.60;0.27;;;23.00;60.40;;;;;;5017651;28;20447;-76
2023/10/10 15:29:10;;;;;;;0.80;0.50;;;23.00;61.10;;;;;;5036473;28;20467;-76
2023/10/10 15:31:45;;;;;;;0.70;0.40;;;23.00;71.10;;;;;;5035918;28;20435;-77
2023/10/10 15:34:14;;;;;;;0.60;0.30;;;23.00;57.40;;;;;;5022556;28;20435;-75
2023/10/10 15:36:43;;;;;;;1.07;0.60;;;22.30;68.70;;;;;;5018382;28;20467;-75
2023/10/10 15:39:13;;;;;;;0.60;0.20;;;23.00;54.10;;;;;;5017374;28;20506;-76
2023/10/10 15:41:42;;;;;;;0.60;0.10;;;22.90;54.50;;;;;;5028423;28;20498;-76
2023/10/10 15:44:15;;;;;;;0.60;0.20;;;23.00;56.50;;;;;;5032651;28;20435;-75
2023/10/10 15:46:44;;;;;;;0.70;0.40;;;23.00;67.20;;;;;;5044752;28;20517;-76
2023/10/10 15:49:14;;;;;;;0.60;0.10;;;23.00;54.10;;;;;;5031191;28;20470;-77
2023/10/10 15:52:03;;;;;;;0.60;0.10;;;23.10;65.80;;;;;;5042844;28;20446;-77
2023/10/10 15:54:34;;;;;;;0.60;0.20;;;23.10;65.80;;;;;;5035962;28;20463;-76
2023/10/10 15:57:05;;;;;;;0.60;0.30;;;22.90;55.00;;;;;;5035942;28;20791;-76
2023/10/10 15:59:33;;;;;;;1.73;1.17;;;22.90;55.50;;;;;;5032840;28;20957;-73
2023/10/10 16:02:01;;;;;;;1.90;1.10;;;22.80;63.80;;;;;;5026877;28;20586;-76
2023/10/10 16:04:29;;;;;;;0.60;0.10;;;;;;;;;;5038078;28;20458;-76
2023/10/10 16:06:58;;;;;;;0.70;0.30;;;22.80;55.50;;;;;;5041656;28;20450;-75
2023/10/10 16:09:30;;;;;;;0.60;0.13;;;22.70;55.10;;;;;;5031429;28;20461;-77
2023/10/10 16:12:00;;;;;;;0.60;0.10;;;22.70;66.40;;;;;;5031375;28;20463;-78
2023/10/10 16:14:27;;;;;;;0.60;0.20;;;22.60;57.90;;;;;;5036877;28;20442;-76
2023/10/10 16:16:56;;;;;;;0.60;0.10;;;22.50;58.40;;;;;;5033791;28;20493;-77
2023/10/10 16:19:30;;;;;;;0.60;0.20;;;22.50;58.20;;;;;;5034138;28;20534;-76
2023/10/10 16:21:59;;;;;;;0.60;0.10;;;22.50;69.20;;;;;;5028586;28;20537;-76
2023/10/10 16:24:27;;;;;;;0.60;0.10;;;22.40;69.90;;;;;;5019410;28;20504;-77
2023/10/10 16:27:01;;;;;;;0.60;0.20;;;22.30;61.70;;;;;;5027897;28;20450;-76
2023/10/10 16:29:35;;;;;;;0.60;0.10;;;22.30;62.30;;;;;;5020387;28;20483;-76
2023/10/10 16:32:17;;;;;;;0.60;0.13;;;22.10;59.20;;;;;;5010653;28;20455;-78
2023/10/10 16:35:02;;;;;;;0.60;0.10;;;22.10;60.60;;;;;;5019433;28;20510;-78
2023/10/10 16:37:36;;;;;;;0.60;0.10;;;22.00;62.00;;;;;;5025532;28;20489;-79
2023/10/10 16:40:08;;;;;;;0.60;0.10;;;22.00;62.50;;;;;;5025570;28;20561;-77
2023/10/10 16:42:36;;;;;;;0.60;0.10;;;22.00;73.50;;;;;;5024848;28;20510;-77
2023/10/10 16:45:10;;;;;;;0.60;0.10;;;23.40;64.20;;;;;;5034544;28;20514;-76
2023/10/10 16:47:41;;;;;;;0.60;0.10;;;21.80;62.60;;;;;;5035264;28;20490;-79
2023/10/10 16:50:11;;;;;;;0.60;0.10;;;21.70;74.60;;;;;;5031973;28;20467;-75
2023/10/10 16:52:38;;;;;;;0.60;0.10;;;21.70;75.40;;;;;;5023168;28;20512;-76
2023/10/10 16:55:10;;;;;;;0.60;0.20;;;21.70;77.30;;;;;;5031484;28;20448;-74
2023/10/10 16:57:39;;;;;;;0.60;0.10;;;21.60;68.00;;;;;;5026861;28;21107;-76
2023/10/10 17:00:12;;;;;;;0.60;0.10;;;21.60;80.20;;;;;;5025793;28;20442;-75
2023/10/10 17:02:40;;;;;;;2.40;2.20;;;21.50;70.30;;;;;;5032275;28;20501;-75
2023/10/10 17:05:11;;;;;;;0.60;0.10;;;21.40;83.70;;;;;;5035719;28;20991;-75
2023/10/10 17:07:40;;;;;;;0.60;0.10;;;21.40;75.30;;;;;;5028506;28;20463;-74
2023/10/10 17:10:13;;;;;;;0.60;0.10;;;21.40;87.50;;;;;;5023382;28;20447;-75
2023/10/10 17:12:42;;;;;;;0.60;0.20;;;21.30;95.60;;;;;;5026352;28;20913;-75
2023/10/10 17:15:18;;;;;;;1.23;0.73;;;21.20;90.00;;;;;;5036054;28;21058;-77
2023/10/10 17:17:46;;;;;;;0.60;0.20;;;20.90;71.10;;;;;;5035124;28;20886;-75
2023/10/10 17:20:16;;;;;;;0.60;0.20;;;21.00;83.40;;;;;;5043344;28;20458;-79
2023/10/10 17:22:46;;;;;;;1.90;0.97;;;20.90;85.30;;;;;;5031615;28;20478;-78
2023/10/10 17:25:14;;;;;;;0.70;0.33;;;20.80;85.00;;;;;;5030054;28;20939;-78
2023/10/10 17:27:43;;;;;;;0.93;0.83;;;20.70;74.60;;;;;;5016779;28;20558;-75
2023/10/10 17:30:14;;;;;;;0.60;0.10;;;20.70;94.70;;;;;;5021536;28;20455;-78
2023/10/10 17:32:43;;;;;;;0.60;0.10;;;20.70;79.70;;;;;;5024765;28;20469;-79
2023/10/10 17:35:11;;;;;;;0.60;0.10;;;20.70;91.40;;;;;;5034803;28;20457;-78
2023/10/10 17:37:39;;;;;;;0.60;0.10;;;20.80;83.00;;;;;;5034602;28;20985;-78
2023/10/10 17:40:12;;;;;;;0.60;0.10;;;22.40;92.60;;;;;;5031769;28;20455;-79
2023/10/10 17:42:45;;;;;;;0.60;0.10;;;20.80;92.70;;;;;;5029816;28;20555;-79
2023/10/10 17:45:16;;;;;;;0.60;0.10;;;20.70;92.70;;;;;;5025358;28;20478;-78
2023/10/10 17:47:44;;;;;;;0.60;0.10;;;20.70;85.90;;;;;;5038638;28;20495;-77
2023/10/10 17:50:15;;;;;;;0.70;0.40;;;20.70;93.40;;;;;;5024667;28;20454;-79
2023/10/10 17:52:43;;;;;;;0.60;0.10;;;20.70;94.00;;;;;;5029588;28;20463;-77
2023/10/10 17:55:12;;;;;;;0.93;0.87;;;20.70;94.30;;;;;;5027647;28;20462;-80
2023/10/10 17:57:41;;;;;;;0.77;0.60;;;20.50;80.60;;;;;;5044396;28;20458;-77
2023/10/10 18:00:13;;;;;;;2.80;1.27;;;20.40;91.30;;;;;;5050874;28;20425;-78
2023/10/10 18:02:46;;;;;;;3.50;2.20;;;20.20;82.00;;;;;;5038224;28;20488;-78
2023/10/10 18:05:15;;;;;;;4.40;0.77;;;20.10;91.20;;;;;;5033602;28;20485;-77
2023/10/10 18:07:44;;;;;;;0.60;0.37;;;18.20;82.00;;;;;;5037935;28;20553;-77
2023/10/10 18:10:13;;;;;;;0.60;0.20;;;20.10;93.50;;;;;;5027157;28;20459;-77
2023/10/10 18:12:42;;;;;;;0.60;0.10;;;20.00;86.40;;;;;;5036072;28;20951;-76
2023/10/10 18:15:11;;;;;;;1.33;1.23;;;20.00;94.40;;;;;;5025605;28;20493;-75
2023/10/10 18:17:39;;;;;;;2.30;0.93;;;19.90;84.20;;;;;;5031801;28;20459;-78
2023/10/10 18:20:15;;;;;;;0.60;0.30;;;19.90;92.00;;;;;;5037700;28;20454;-77
2023/10/10 18:22:44;;;;;;;0.70;0.47;;;19.90;93.00;;;;;;5037165;28;20481;-78
2023/10/10 18:25:13;;;;;;;0.60;0.17;;;19.80;92.10;;;;;;5037483;28;20441;-78
2023/10/10 18:27:44;;;;;;;23.07;13.10;;;19.80;85.20;;;;;;5038309;28;20480;-77
2023/10/10 18:30:14;;;;;;;3.37;2.93;;;19.70;93.60;;;;;;5037137;28;20456;-78
2023/10/10 18:32:42;;;;;;;1.80;1.70;;;19.70;94.00;;;;;;5038060;28;20442;-78
2023/10/10 18:35:13;;;;;;;0.60;0.10;;;19.60;93.70;;;;;;5028081;28;20532;-78
2023/10/10 18:37:42;;;;;;;0.60;0.10;;;19.70;91.20;;;;;;5022542;28;20463;-78
2023/10/10 18:40:12;;;;;;;0.60;0.30;;;19.70;96.90;;;;;;5033105;28;20467;-77
2023/10/10 18:42:40;;;;;;;0.60;0.13;;;19.70;96.50;;;;;;5034280;28;20546;-77
2023/10/10 18:45:12;;;;;;;0.70;0.40;;;19.70;96.80;;;;;;5050793;28;20450;-77
2023/10/10 18:47:40;;;;;;;0.60;0.20;;;19.70;92.80;;;;;;5048142;28;20484;-77
2023/10/10 18:50:09;;;;;;;0.60;0.20;;;19.70;97.80;;;;;;5050849;28;20448;-77
2023/10/10 18:52:38;;;;;;;1.00;0.57;;;19.70;98.00;;;;;;5041870;28;20513;-77
2023/10/10 18:55:07;;;;;;;0.60;0.10;;;19.60;95.60;;;;;;5047128;28;20450;-76